sensor_id;sensor_type;location;lat;lon;timestamp;P1;durP1;ratioP1;P2;durP2;ratioP2
12275;SDS011;6200;48.144;11.424;2023-03-01T00:01:58;0.50;;;0.50;;
12275;SDS011;6200;48.144;11.424;2023-03-01T00:04:24;0.50;;;0.50;;
12275;SDS011;6200;48.144;11.424;2023-03-01T00:06:49;0.40;;;0.40;;
12275;SDS011;6200;48.144;11.424;2023-03-01T00:09:15;0.40;;;0.40;;
12275;SDS011;6200;48.144;11.424;2023-03-01T00:11:41;0.50;;;0.50;;
12275;SDS011;6200;48.144;11.424;2023-03-01T00:14:08;0.50;;;0.50;;
12275;SDS011;6200;48.144;11.424;2023-03-01T00:16:34;0.40;;;0.40;;
12275;SDS011;6200;48.144;11.424;2023-03-01T00:19:05;0.50;;;0.50;;
12275;SDS011;6200;48.144;11.424;2023-03-01T00:21:31;0.47;;;0.47;;
12275;SDS011;6200;48.144;11.424;2023-03-01T00:23:57;0.50;;;0.50;;
12275;SDS011;6200;48.144;11.424;2023-03-01T00:26:23;0.47;;;0.47;;
12275;SDS011;6200;48.144;11.424;2023-03-01T00:28:50;0.43;;;0.43;;
12275;SDS011;6200;48.144;11.424;2023-03-01T00:31:20;0.50;;;0.50;;
12275;SDS011;6200;48.144;11.424;2023-03-01T00:33:47;0.40;;;0.40;;
12275;SDS011;6200;48.144;11.424;2023-03-01T00:36:14;0.50;;;0.50;;
12275;SDS011;6200;48.144;11.424;2023-03-01T00:38:43;0.53;;;0.53;;
12275;SDS011;6200;48.144;11.424;2023-03-01T00:41:12;0.50;;;0.50;;
12275;SDS011;6200;48.144;11.424;2023-03-01T00:43:39;0.60;;;0.60;;
12275;SDS011;6200;48.144;11.424;2023-03-01T00:46:19;0.50;;;0.50;;
12275;SDS011;6200;48.144;11.424;2023-03-01T00:48:45;0.40;;;0.40;;
12275;SDS011;6200;48.144;11.424;2023-03-01T00:51:12;0.40;;;0.40;;
12275;SDS011;6200;48.144;11.424;2023-03-01T00:53:40;0.40;;;0.40;;
12275;SDS011;6200;48.144;11.424;2023-03-01T00:56:06;0.47;;;0.47;;
12275;SDS011;6200;48.144;11.424;2023-03-01T00:58:32;0.40;;;0.40;;
12275;SDS011;6200;48.144;11.424;2023-03-01T01:00:59;0.50;;;0.50;;
12275;SDS011;6200;48.144;11.424;2023-03-01T01:03:24;0.40;;;0.40;;
12275;SDS011;6200;48.144;11.424;2023-03-01T01:05:51;0.40;;;0.40;;
12275;SDS011;6200;48.144;11.424;2023-03-01T01:08:17;0.40;;;0.40;;
12275;SDS011;6200;48.144;11.424;2023-03-01T01:10:44;0.40;;;0.40;;
12275;SDS011;6200;48.144;11.424;2023-03-01T01:13:10;0.50;;;0.50;;
12275;SDS011;6200;48.144;11.424;2023-03-01T01:15:36;0.40;;;0.40;;
12275;SDS011;6200;48.144;11.424;2023-03-01T01:18:01;0.30;;;0.30;;
12275;SDS011;6200;48.144;11.424;2023-03-01T01:20:27;0.40;;;0.40;;
12275;SDS011;6200;48.144;11.424;2023-03-01T01:22:53;0.43;;;0.43;;
12275;SDS011;6200;48.144;11.424;2023-03-01T01:25:19;0.50;;;0.50;;
12275;SDS011;6200;48.144;11.424;2023-03-01T01:27:44;0.40;;;0.40;;
12275;SDS011;6200;48.144;11.424;2023-03-01T01:30:10;0.47;;;0.47;;
12275;SDS011;6200;48.144;11.424;2023-03-01T01:32:36;0.40;;;0.40;;
12275;SDS011;6200;48.144;11.424;2023-03-01T01:35:01;0.50;;;0.50;;
12275;SDS011;6200;48.144;11.424;2023-03-01T01:37:27;0.50;;;0.50;;
12275;SDS011;6200;48.144;11.424;2023-03-01T01:39:56;0.40;;;0.40;;
12275;SDS011;6200;48.144;11.424;2023-03-01T01:42:24;0.60;;;0.60;;
12275;SDS011;6200;48.144;11.424;2023-03-01T01:45:15;0.50;;;0.50;;
12275;SDS011;6200;48.144;11.424;2023-03-01T01:47:55;0.47;;;0.47;;
12275;SDS011;6200;48.144;11.424;2023-03-01T01:50:29;0.40;;;0.40;;
12275;SDS011;6200;48.144;11.424;2023-03-01T01:53:02;0.50;;;0.50;;
12275;SDS011;6200;48.144;11.424;2023-03-01T01:55:35;0.50;;;0.50;;
12275;SDS011;6200;48.144;11.424;2023-03-01T01:58:04;0.40;;;0.40;;
12275;SDS011;6200;48.144;11.424;2023-03-01T02:00:33;0.47;;;0.47;;
12275;SDS011;6200;48.144;11.424;2023-03-01T02:03:10;0.40;;;0.40;;
12275;SDS011;6200;48.144;11.424;2023-03-01T02:05:39;0.40;;;0.40;;
12275;SDS011;6200;48.144;11.424;2023-03-01T02:08:08;0.57;;;0.57;;
12275;SDS011;6200;48.144;11.424;2023-03-01T02:10:37;0.40;;;0.40;;
12275;SDS011;6200;48.144;11.424;2023-03-01T02:13:03;0.47;;;0.47;;
12275;SDS011;6200;48.144;11.424;2023-03-01T02:15:35;0.50;;;0.50;;
12275;SDS011;6200;48.144;11.424;2023-03-01T02:18:02;0.40;;;0.40;;
12275;SDS011;6200;48.144;11.424;2023-03-01T02:20:36;0.40;;;0.40;;
12275;SDS011;6200;48.144;11.424;2023-03-01T02:23:10;0.40;;;0.40;;
12275;SDS011;6200;48.144;11.424;2023-03-01T02:30:40;0.50;;;0.50;;
12275;SDS011;6200;48.144;11.424;2023-03-01T02:33:27;0.60;;;0.60;;
12275;SDS011;6200;48.144;11.424;2023-03-01T02:35:53;0.60;;;0.60;;
12275;SDS011;6200;48.144;11.424;2023-03-01T02:38:20;0.50;;;0.50;;
12275;SDS011;6200;48.144;11.424;2023-03-01T02:40:46;0.40;;;0.40;;
12275;SDS011;6200;48.144;11.424;2023-03-01T02:43:15;0.50;;;0.50;;
12275;SDS011;6200;48.144;11.424;2023-03-01T02:45:43;0.43;;;0.43;;
12275;SDS011;6200;48.144;11.424;2023-03-01T02:48:17;0.50;;;0.50;;
12275;SDS011;6200;48.144;11.424;2023-03-01T02:53:55;0.50;;;0.50;;
12275;SDS011;6200;48.144;11.424;2023-03-01T02:56:28;0.43;;;0.43;;
12275;SDS011;6200;48.144;11.424;2023-03-01T02:58:54;0.40;;;0.40;;
12275;SDS011;6200;48.144;11.424;2023-03-01T03:01:25;0.50;;;0.50;;
12275;SDS011;6200;48.144;11.424;2023-03-01T03:04:01;0.40;;;0.40;;
12275;SDS011;6200;48.144;11.424;2023-03-01T03:06:35;0.40;;;0.40;;
12275;SDS011;6200;48.144;11.424;2023-03-01T03:09:00;0.40;;;0.40;;
12275;SDS011;6200;48.144;11.424;2023-03-01T03:11:27;0.40;;;0.40;;
12275;SDS011;6200;48.144;11.424;2023-03-01T03:13:52;0.50;;;0.50;;
12275;SDS011;6200;48.144;11.424;2023-03-01T03:16:18;0.50;;;0.50;;
12275;SDS011;6200;48.144;11.424;2023-03-01T03:18:44;0.50;;;0.50;;
12275;SDS011;6200;48.144;11.424;2023-03-01T03:21:11;0.57;;;0.57;;
12275;SDS011;6200;48.144;11.424;2023-03-01T03:23:37;0.50;;;0.50;;
12275;SDS011;6200;48.144;11.424;2023-03-01T03:26:04;0.50;;;0.50;;
12275;SDS011;6200;48.144;11.424;2023-03-01T03:28:31;0.50;;;0.50;;
12275;SDS011;6200;48.144;11.424;2023-03-01T03:30:57;0.50;;;0.50;;
12275;SDS011;6200;48.144;11.424;2023-03-01T03:33:23;0.40;;;0.40;;
12275;SDS011;6200;48.144;11.424;2023-03-01T03:35:49;0.40;;;0.40;;
12275;SDS011;6200;48.144;11.424;2023-03-01T03:38:16;0.50;;;0.50;;
12275;SDS011;6200;48.144;11.424;2023-03-01T03:40:45;0.50;;;0.50;;
12275;SDS011;6200;48.144;11.424;2023-03-01T03:43:13;0.50;;;0.50;;
12275;SDS011;6200;48.144;11.424;2023-03-01T03:45:40;0.40;;;0.40;;
12275;SDS011;6200;48.144;11.424;2023-03-01T03:48:07;0.50;;;0.50;;
12275;SDS011;6200;48.144;11.424;2023-03-01T03:50:34;0.60;;;0.60;;
12275;SDS011;6200;48.144;11.424;2023-03-01T03:53:00;0.50;;;0.50;;
12275;SDS011;6200;48.144;11.424;2023-03-01T03:55:27;0.50;;;0.50;;
12275;SDS011;6200;48.144;11.424;2023-03-01T03:57:56;0.50;;;0.50;;
12275;SDS011;6200;48.144;11.424;2023-03-01T04:00:23;0.50;;;0.50;;
12275;SDS011;6200;48.144;11.424;2023-03-01T04:02:50;0.40;;;0.40;;
12275;SDS011;6200;48.144;11.424;2023-03-01T04:05:16;0.40;;;0.40;;
12275;SDS011;6200;48.144;11.424;2023-03-01T04:07:43;0.43;;;0.43;;
12275;SDS011;6200;48.144;11.424;2023-03-01T04:10:10;0.50;;;0.50;;
12275;SDS011;6200;48.144;11.424;2023-03-01T04:12:37;0.50;;;0.50;;
12275;SDS011;6200;48.144;11.424;2023-03-01T04:15:04;0.50;;;0.50;;
12275;SDS011;6200;48.144;11.424;2023-03-01T04:17:41;0.53;;;0.53;;
12275;SDS011;6200;48.144;11.424;2023-03-01T04:20:12;0.50;;;0.50;;
12275;SDS011;6200;48.144;11.424;2023-03-01T04:22:42;0.50;;;0.50;;
12275;SDS011;6200;48.144;11.424;2023-03-01T04:25:08;0.37;;;0.37;;
12275;SDS011;6200;48.144;11.424;2023-03-01T04:27:34;0.70;;;0.70;;
12275;SDS011;6200;48.144;11.424;2023-03-01T04:30:01;0.40;;;0.40;;
12275;SDS011;6200;48.144;11.424;2023-03-01T04:32:28;0.50;;;0.50;;
12275;SDS011;6200;48.144;11.424;2023-03-01T04:34:53;0.50;;;0.50;;
12275;SDS011;6200;48.144;11.424;2023-03-01T04:37:19;0.40;;;0.40;;
12275;SDS011;6200;48.144;11.424;2023-03-01T04:39:44;0.50;;;0.50;;
12275;SDS011;6200;48.144;11.424;2023-03-01T04:42:10;0.60;;;0.60;;
12275;SDS011;6200;48.144;11.424;2023-03-01T04:44:36;0.40;;;0.40;;
12275;SDS011;6200;48.144;11.424;2023-03-01T04:47:02;0.43;;;0.43;;
12275;SDS011;6200;48.144;11.424;2023-03-01T04:49:28;0.40;;;0.40;;
12275;SDS011;6200;48.144;11.424;2023-03-01T04:51:53;0.50;;;0.50;;
12275;SDS011;6200;48.144;11.424;2023-03-01T04:54:18;0.43;;;0.43;;
12275;SDS011;6200;48.144;11.424;2023-03-01T04:56:44;0.60;;;0.60;;
12275;SDS011;6200;48.144;11.424;2023-03-01T04:59:09;0.40;;;0.40;;
12275;SDS011;6200;48.144;11.424;2023-03-01T05:01:37;0.70;;;0.70;;
12275;SDS011;6200;48.144;11.424;2023-03-01T05:04:03;0.40;;;0.40;;
12275;SDS011;6200;48.144;11.424;2023-03-01T05:06:30;0.50;;;0.50;;
12275;SDS011;6200;48.144;11.424;2023-03-01T05:08:56;0.50;;;0.50;;
12275;SDS011;6200;48.144;11.424;2023-03-01T05:11:21;0.50;;;0.50;;
12275;SDS011;6200;48.144;11.424;2023-03-01T05:13:47;0.40;;;0.40;;
12275;SDS011;6200;48.144;11.424;2023-03-01T05:16:14;0.53;;;0.53;;
12275;SDS011;6200;48.144;11.424;2023-03-01T05:18:41;0.50;;;0.50;;
12275;SDS011;6200;48.144;11.424;2023-03-01T05:21:12;0.50;;;0.50;;
12275;SDS011;6200;48.144;11.424;2023-03-01T05:23:40;0.40;;;0.40;;
12275;SDS011;6200;48.144;11.424;2023-03-01T05:26:06;0.40;;;0.40;;
12275;SDS011;6200;48.144;11.424;2023-03-01T05:28:33;0.57;;;0.57;;
12275;SDS011;6200;48.144;11.424;2023-03-01T05:30:58;0.53;;;0.53;;
12275;SDS011;6200;48.144;11.424;2023-03-01T05:33:24;0.50;;;0.50;;
12275;SDS011;6200;48.144;11.424;2023-03-01T05:35:51;0.60;;;0.60;;
12275;SDS011;6200;48.144;11.424;2023-03-01T05:38:19;0.60;;;0.60;;
12275;SDS011;6200;48.144;11.424;2023-03-01T05:40:46;0.40;;;0.40;;
12275;SDS011;6200;48.144;11.424;2023-03-01T05:43:13;0.50;;;0.50;;
12275;SDS011;6200;48.144;11.424;2023-03-01T05:45:40;0.53;;;0.53;;
12275;SDS011;6200;48.144;11.424;2023-03-01T05:48:06;0.40;;;0.40;;
12275;SDS011;6200;48.144;11.424;2023-03-01T05:50:37;0.60;;;0.60;;
12275;SDS011;6200;48.144;11.424;2023-03-01T05:53:16;0.50;;;0.50;;
12275;SDS011;6200;48.144;11.424;2023-03-01T05:55:43;0.50;;;0.50;;
12275;SDS011;6200;48.144;11.424;2023-03-01T05:58:10;0.60;;;0.60;;
12275;SDS011;6200;48.144;11.424;2023-03-01T06:00:38;0.40;;;0.40;;
12275;SDS011;6200;48.144;11.424;2023-03-01T06:03:04;0.50;;;0.50;;
12275;SDS011;6200;48.144;11.424;2023-03-01T06:05:30;0.50;;;0.50;;
12275;SDS011;6200;48.144;11.424;2023-03-01T06:07:58;0.50;;;0.50;;
12275;SDS011;6200;48.144;11.424;2023-03-01T06:10:24;0.50;;;0.50;;
12275;SDS011;6200;48.144;11.424;2023-03-01T06:12:50;0.50;;;0.50;;
12275;SDS011;6200;48.144;11.424;2023-03-01T06:15:16;0.40;;;0.40;;
12275;SDS011;6200;48.144;11.424;2023-03-01T06:17:42;0.50;;;0.50;;
12275;SDS011;6200;48.144;11.424;2023-03-01T06:20:11;0.40;;;0.40;;
12275;SDS011;6200;48.144;11.424;2023-03-01T06:22:40;0.40;;;0.40;;
12275;SDS011;6200;48.144;11.424;2023-03-01T06:25:07;0.50;;;0.50;;
12275;SDS011;6200;48.144;11.424;2023-03-01T06:27:33;0.50;;;0.50;;
12275;SDS011;6200;48.144;11.424;2023-03-01T06:29:59;0.50;;;0.50;;
12275;SDS011;6200;48.144;11.424;2023-03-01T06:32:25;0.40;;;0.40;;
12275;SDS011;6200;48.144;11.424;2023-03-01T06:34:50;0.40;;;0.40;;
12275;SDS011;6200;48.144;11.424;2023-03-01T06:37:16;0.50;;;0.50;;
12275;SDS011;6200;48.144;11.424;2023-03-01T06:39:42;0.60;;;0.60;;
12275;SDS011;6200;48.144;11.424;2023-03-01T06:42:08;0.50;;;0.50;;
12275;SDS011;6200;48.144;11.424;2023-03-01T06:44:35;0.40;;;0.40;;
12275;SDS011;6200;48.144;11.424;2023-03-01T06:47:01;0.40;;;0.40;;
12275;SDS011;6200;48.144;11.424;2023-03-01T06:49:26;0.40;;;0.40;;
12275;SDS011;6200;48.144;11.424;2023-03-01T06:51:52;0.50;;;0.50;;
12275;SDS011;6200;48.144;11.424;2023-03-01T06:54:17;0.40;;;0.40;;
12275;SDS011;6200;48.144;11.424;2023-03-01T06:56:46;0.50;;;0.50;;
12275;SDS011;6200;48.144;11.424;2023-03-01T06:59:11;0.40;;;0.40;;
12275;SDS011;6200;48.144;11.424;2023-03-01T07:01:37;0.33;;;0.33;;
12275;SDS011;6200;48.144;11.424;2023-03-01T07:04:03;0.53;;;0.53;;
12275;SDS011;6200;48.144;11.424;2023-03-01T07:06:29;0.47;;;0.47;;
12275;SDS011;6200;48.144;11.424;2023-03-01T07:08:54;0.50;;;0.50;;
12275;SDS011;6200;48.144;11.424;2023-03-01T07:11:20;0.33;;;0.33;;
12275;SDS011;6200;48.144;11.424;2023-03-01T07:13:45;0.40;;;0.40;;
12275;SDS011;6200;48.144;11.424;2023-03-01T07:16:11;0.50;;;0.50;;
12275;SDS011;6200;48.144;11.424;2023-03-01T07:18:37;0.40;;;0.40;;
12275;SDS011;6200;48.144;11.424;2023-03-01T07:21:08;0.33;;;0.33;;
12275;SDS011;6200;48.144;11.424;2023-03-01T07:23:36;0.40;;;0.40;;
12275;SDS011;6200;48.144;11.424;2023-03-01T07:26:01;0.50;;;0.50;;
12275;SDS011;6200;48.144;11.424;2023-03-01T07:28:27;0.50;;;0.50;;
12275;SDS011;6200;48.144;11.424;2023-03-01T07:30:53;0.40;;;0.40;;
12275;SDS011;6200;48.144;11.424;2023-03-01T07:33:19;0.43;;;0.43;;
12275;SDS011;6200;48.144;11.424;2023-03-01T07:35:45;0.50;;;0.50;;
12275;SDS011;6200;48.144;11.424;2023-03-01T07:38:10;0.50;;;0.50;;
12275;SDS011;6200;48.144;11.424;2023-03-01T07:40:36;0.40;;;0.40;;
12275;SDS011;6200;48.144;11.424;2023-03-01T07:43:01;0.50;;;0.50;;
12275;SDS011;6200;48.144;11.424;2023-03-01T07:45:27;0.50;;;0.50;;
12275;SDS011;6200;48.144;11.424;2023-03-01T07:47:54;0.60;;;0.60;;
12275;SDS011;6200;48.144;11.424;2023-03-01T07:50:20;0.50;;;0.50;;
12275;SDS011;6200;48.144;11.424;2023-03-01T07:52:47;0.50;;;0.50;;
12275;SDS011;6200;48.144;11.424;2023-03-01T07:55:13;0.50;;;0.50;;
12275;SDS011;6200;48.144;11.424;2023-03-01T07:57:39;0.40;;;0.40;;
12275;SDS011;6200;48.144;11.424;2023-03-01T08:00:05;0.57;;;0.57;;
12275;SDS011;6200;48.144;11.424;2023-03-01T08:02:32;0.50;;;0.50;;
12275;SDS011;6200;48.144;11.424;2023-03-01T08:04:57;0.57;;;0.57;;
12275;SDS011;6200;48.144;11.424;2023-03-01T08:07:22;0.50;;;0.50;;
12275;SDS011;6200;48.144;11.424;2023-03-01T08:09:48;0.50;;;0.50;;
12275;SDS011;6200;48.144;11.424;2023-03-01T08:12:14;0.40;;;0.40;;
12275;SDS011;6200;48.144;11.424;2023-03-01T08:14:41;0.47;;;0.47;;
12275;SDS011;6200;48.144;11.424;2023-03-01T08:17:06;0.50;;;0.50;;
12275;SDS011;6200;48.144;11.424;2023-03-01T08:19:32;0.40;;;0.40;;
12275;SDS011;6200;48.144;11.424;2023-03-01T08:21:59;0.63;;;0.63;;
12275;SDS011;6200;48.144;11.424;2023-03-01T08:24:27;0.50;;;0.50;;
12275;SDS011;6200;48.144;11.424;2023-03-01T08:26:53;0.50;;;0.50;;
12275;SDS011;6200;48.144;11.424;2023-03-01T08:29:19;0.40;;;0.40;;
12275;SDS011;6200;48.144;11.424;2023-03-01T08:31:45;0.40;;;0.40;;
12275;SDS011;6200;48.144;11.424;2023-03-01T08:34:12;0.60;;;0.60;;
12275;SDS011;6200;48.144;11.424;2023-03-01T08:36:40;0.50;;;0.50;;
12275;SDS011;6200;48.144;11.424;2023-03-01T08:39:07;0.50;;;0.50;;
12275;SDS011;6200;48.144;11.424;2023-03-01T08:41:33;0.50;;;0.50;;
12275;SDS011;6200;48.144;11.424;2023-03-01T08:43:59;0.47;;;0.47;;
12275;SDS011;6200;48.144;11.424;2023-03-01T08:46:26;0.50;;;0.50;;
12275;SDS011;6200;48.144;11.424;2023-03-01T08:48:55;0.50;;;0.50;;
12275;SDS011;6200;48.144;11.424;2023-03-01T08:51:21;0.60;;;0.60;;
12275;SDS011;6200;48.144;11.424;2023-03-01T08:53:48;0.50;;;0.50;;
12275;SDS011;6200;48.144;11.424;2023-03-01T08:56:14;0.50;;;0.50;;
12275;SDS011;6200;48.144;11.424;2023-03-01T08:58:43;0.40;;;0.40;;
12275;SDS011;6200;48.144;11.424;2023-03-01T09:01:10;0.40;;;0.40;;
12275;SDS011;6200;48.144;11.424;2023-03-01T09:03:37;0.50;;;0.50;;
12275;SDS011;6200;48.144;11.424;2023-03-01T09:06:03;0.50;;;0.50;;
12275;SDS011;6200;48.144;11.424;2023-03-01T09:08:30;0.50;;;0.50;;
12275;SDS011;6200;48.144;11.424;2023-03-01T09:11:00;0.50;;;0.50;;
12275;SDS011;6200;48.144;11.424;2023-03-01T09:13:27;0.50;;;0.50;;
12275;SDS011;6200;48.144;11.424;2023-03-01T09:15:55;0.50;;;0.50;;
12275;SDS011;6200;48.144;11.424;2023-03-01T09:18:22;0.40;;;0.40;;
12275;SDS011;6200;48.144;11.424;2023-03-01T09:20:47;0.50;;;0.50;;
12275;SDS011;6200;48.144;11.424;2023-03-01T09:23:13;0.43;;;0.43;;
12275;SDS011;6200;48.144;11.424;2023-03-01T09:25:38;0.50;;;0.50;;
12275;SDS011;6200;48.144;11.424;2023-03-01T09:28:04;0.43;;;0.43;;
12275;SDS011;6200;48.144;11.424;2023-03-01T09:30:29;0.50;;;0.50;;
12275;SDS011;6200;48.144;11.424;2023-03-01T09:32:56;0.40;;;0.40;;
12275;SDS011;6200;48.144;11.424;2023-03-01T09:35:22;0.40;;;0.40;;
12275;SDS011;6200;48.144;11.424;2023-03-01T09:37:48;0.50;;;0.50;;
12275;SDS011;6200;48.144;11.424;2023-03-01T09:40:16;0.47;;;0.47;;
12275;SDS011;6200;48.144;11.424;2023-03-01T09:42:48;0.40;;;0.40;;
12275;SDS011;6200;48.144;11.424;2023-03-01T09:45:35;0.67;;;0.67;;
12275;SDS011;6200;48.144;11.424;2023-03-01T09:48:06;0.40;;;0.40;;
12275;SDS011;6200;48.144;11.424;2023-03-01T09:50:40;0.60;;;0.60;;
12275;SDS011;6200;48.144;11.424;2023-03-01T10:01:21;0.50;;;0.50;;
12275;SDS011;6200;48.144;11.424;2023-03-01T10:09:40;0.40;;;0.40;;
12275;SDS011;6200;48.144;11.424;2023-03-01T10:12:18;0.50;;;0.50;;
12275;SDS011;6200;48.144;11.424;2023-03-01T10:15:02;0.50;;;0.50;;
12275;SDS011;6200;48.144;11.424;2023-03-01T10:17:52;0.50;;;0.50;;
12275;SDS011;6200;48.144;11.424;2023-03-01T10:20:23;0.50;;;0.50;;
12275;SDS011;6200;48.144;11.424;2023-03-01T10:22:50;0.40;;;0.40;;
12275;SDS011;6200;48.144;11.424;2023-03-01T10:28:17;0.50;;;0.50;;
12275;SDS011;6200;48.144;11.424;2023-03-01T10:31:03;0.50;;;0.50;;
12275;SDS011;6200;48.144;11.424;2023-03-01T10:33:30;0.47;;;0.47;;
12275;SDS011;6200;48.144;11.424;2023-03-01T10:35:57;0.40;;;0.40;;
12275;SDS011;6200;48.144;11.424;2023-03-01T10:38:23;0.50;;;0.50;;
12275;SDS011;6200;48.144;11.424;2023-03-01T10:40:50;0.40;;;0.40;;
12275;SDS011;6200;48.144;11.424;2023-03-01T10:43:22;0.40;;;0.40;;
12275;SDS011;6200;48.144;11.424;2023-03-01T10:45:49;0.47;;;0.47;;
12275;SDS011;6200;48.144;11.424;2023-03-01T10:48:22;0.50;;;0.50;;
12275;SDS011;6200;48.144;11.424;2023-03-01T10:53:33;0.50;;;0.50;;
12275;SDS011;6200;48.144;11.424;2023-03-01T10:56:06;0.40;;;0.40;;
12275;SDS011;6200;48.144;11.424;2023-03-01T10:58:34;0.50;;;0.50;;
12275;SDS011;6200;48.144;11.424;2023-03-01T11:01:01;0.47;;;0.47;;
12275;SDS011;6200;48.144;11.424;2023-03-01T11:06:30;0.43;;;0.43;;
12275;SDS011;6200;48.144;11.424;2023-03-01T11:08:55;0.40;;;0.40;;
12275;SDS011;6200;48.144;11.424;2023-03-01T11:13:57;0.50;;;0.50;;
12275;SDS011;6200;48.144;11.424;2023-03-01T11:18:59;0.40;;;0.40;;
12275;SDS011;6200;48.144;11.424;2023-03-01T11:22:08;0.40;;;0.40;;
12275;SDS011;6200;48.144;11.424;2023-03-01T11:27:14;0.40;;;0.40;;
12275;SDS011;6200;48.144;11.424;2023-03-01T11:32:30;0.30;;;0.30;;
12275;SDS011;6200;48.144;11.424;2023-03-01T11:35:05;0.47;;;0.47;;
12275;SDS011;6200;48.144;11.424;2023-03-01T11:37:44;0.50;;;0.50;;
12275;SDS011;6200;48.144;11.424;2023-03-01T11:48:49;0.40;;;0.40;;
12275;SDS011;6200;48.144;11.424;2023-03-01T11:51:33;0.47;;;0.47;;
12275;SDS011;6200;48.144;11.424;2023-03-01T11:54:28;0.20;;;0.20;;
12275;SDS011;6200;48.144;11.424;2023-03-01T12:00:06;0.40;;;0.40;;
12275;SDS011;6200;48.144;11.424;2023-03-01T12:12:58;0.20;;;0.20;;
12275;SDS011;6200;48.144;11.424;2023-03-01T12:18:44;0.30;;;0.30;;
12275;SDS011;6200;48.144;11.424;2023-03-01T12:24:14;0.30;;;0.30;;
12275;SDS011;6200;48.144;11.424;2023-03-01T12:32:38;0.30;;;0.30;;
12275;SDS011;6200;48.144;11.424;2023-03-01T12:35:20;0.23;;;0.23;;
12275;SDS011;6200;48.144;11.424;2023-03-01T12:41:10;0.20;;;0.20;;
12275;SDS011;6200;48.144;11.424;2023-03-01T12:43:57;0.30;;;0.30;;
12275;SDS011;6200;48.144;11.424;2023-03-01T12:49:31;0.30;;;0.30;;
12275;SDS011;6200;48.144;11.424;2023-03-01T12:52:11;0.30;;;0.30;;
12275;SDS011;6200;48.144;11.424;2023-03-01T12:54:37;0.20;;;0.20;;
12275;SDS011;6200;48.144;11.424;2023-03-01T12:57:09;0.20;;;0.20;;
12275;SDS011;6200;48.144;11.424;2023-03-01T12:59:44;0.30;;;0.30;;
12275;SDS011;6200;48.144;11.424;2023-03-01T13:02:31;0.20;;;0.20;;
12275;SDS011;6200;48.144;11.424;2023-03-01T13:08:06;0.30;;;0.30;;
12275;SDS011;6200;48.144;11.424;2023-03-01T13:10:48;0.30;;;0.30;;
12275;SDS011;6200;48.144;11.424;2023-03-01T13:13:21;0.20;;;0.20;;
12275;SDS011;6200;48.144;11.424;2023-03-01T13:15:49;0.20;;;0.20;;
12275;SDS011;6200;48.144;11.424;2023-03-01T13:25:42;0.30;;;0.30;;
12275;SDS011;6200;48.144;11.424;2023-03-01T13:31:09;0.20;;;0.20;;
12275;SDS011;6200;48.144;11.424;2023-03-01T13:44:12;0.30;;;0.30;;
12275;SDS011;6200;48.144;11.424;2023-03-01T13:46:52;0.20;;;0.20;;
12275;SDS011;6200;48.144;11.424;2023-03-01T13:49:21;0.20;;;0.20;;
12275;SDS011;6200;48.144;11.424;2023-03-01T13:51:50;0.30;;;0.30;;
12275;SDS011;6200;48.144;11.424;2023-03-01T13:54:16;0.30;;;0.30;;
12275;SDS011;6200;48.144;11.424;2023-03-01T13:56:51;0.30;;;0.30;;
12275;SDS011;6200;48.144;11.424;2023-03-01T13:59:20;0.30;;;0.30;;
12275;SDS011;6200;48.144;11.424;2023-03-01T14:01:53;0.20;;;0.20;;
12275;SDS011;6200;48.144;11.424;2023-03-01T14:04:28;0.30;;;0.30;;
12275;SDS011;6200;48.144;11.424;2023-03-01T14:09:55;0.30;;;0.30;;
12275;SDS011;6200;48.144;11.424;2023-03-01T14:15:27;0.30;;;0.30;;
12275;SDS011;6200;48.144;11.424;2023-03-01T14:17:59;0.30;;;0.30;;
12275;SDS011;6200;48.144;11.424;2023-03-01T14:20:41;0.20;;;0.20;;
12275;SDS011;6200;48.144;11.424;2023-03-01T14:23:15;0.27;;;0.27;;
12275;SDS011;6200;48.144;11.424;2023-03-01T14:26:02;0.20;;;0.20;;
12275;SDS011;6200;48.144;11.424;2023-03-01T14:28:29;0.20;;;0.20;;
12275;SDS011;6200;48.144;11.424;2023-03-01T14:30:59;0.30;;;0.30;;
12275;SDS011;6200;48.144;11.424;2023-03-01T14:41:08;0.30;;;0.30;;
12275;SDS011;6200;48.144;11.424;2023-03-01T14:46:22;0.20;;;0.20;;
12275;SDS011;6200;48.144;11.424;2023-03-01T14:51:35;0.20;;;0.20;;
12275;SDS011;6200;48.144;11.424;2023-03-01T14:54:10;0.30;;;0.30;;
12275;SDS011;6200;48.144;11.424;2023-03-01T14:57:03;0.40;;;0.40;;
12275;SDS011;6200;48.144;11.424;2023-03-01T14:59:29;0.20;;;0.20;;
12275;SDS011;6200;48.144;11.424;2023-03-01T15:01:55;0.40;;;0.40;;
12275;SDS011;6200;48.144;11.424;2023-03-01T15:04:23;0.27;;;0.27;;
12275;SDS011;6200;48.144;11.424;2023-03-01T15:06:50;0.20;;;0.20;;
12275;SDS011;6200;48.144;11.424;2023-03-01T15:09:17;0.30;;;0.30;;
12275;SDS011;6200;48.144;11.424;2023-03-01T15:11:44;0.30;;;0.30;;
12275;SDS011;6200;48.144;11.424;2023-03-01T15:14:25;0.30;;;0.30;;
12275;SDS011;6200;48.144;11.424;2023-03-01T15:20:00;0.20;;;0.20;;
12275;SDS011;6200;48.144;11.424;2023-03-01T15:22:29;0.20;;;0.20;;
12275;SDS011;6200;48.144;11.424;2023-03-01T15:24:54;0.27;;;0.27;;
12275;SDS011;6200;48.144;11.424;2023-03-01T15:27:21;0.30;;;0.30;;
12275;SDS011;6200;48.144;11.424;2023-03-01T15:29:49;0.20;;;0.20;;
12275;SDS011;6200;48.144;11.424;2023-03-01T15:32:36;0.20;;;0.20;;
12275;SDS011;6200;48.144;11.424;2023-03-01T15:38:00;0.20;;;0.20;;
12275;SDS011;6200;48.144;11.424;2023-03-01T15:40:29;0.30;;;0.30;;
12275;SDS011;6200;48.144;11.424;2023-03-01T15:43:01;0.30;;;0.30;;
12275;SDS011;6200;48.144;11.424;2023-03-01T15:45:29;0.43;;;0.43;;
12275;SDS011;6200;48.144;11.424;2023-03-01T15:48:00;0.30;;;0.30;;
12275;SDS011;6200;48.144;11.424;2023-03-01T15:50:31;0.40;;;0.40;;
12275;SDS011;6200;48.144;11.424;2023-03-01T15:52:58;0.20;;;0.20;;
12275;SDS011;6200;48.144;11.424;2023-03-01T15:55:26;0.20;;;0.20;;
12275;SDS011;6200;48.144;11.424;2023-03-01T15:57:58;0.33;;;0.33;;
12275;SDS011;6200;48.144;11.424;2023-03-01T16:00:27;0.30;;;0.30;;
12275;SDS011;6200;48.144;11.424;2023-03-01T16:02:53;0.30;;;0.30;;
12275;SDS011;6200;48.144;11.424;2023-03-01T16:05:21;0.30;;;0.30;;
12275;SDS011;6200;48.144;11.424;2023-03-01T16:07:52;0.40;;;0.40;;
12275;SDS011;6200;48.144;11.424;2023-03-01T16:10:19;0.20;;;0.20;;
12275;SDS011;6200;48.144;11.424;2023-03-01T16:12:45;0.23;;;0.23;;
12275;SDS011;6200;48.144;11.424;2023-03-01T16:15:17;0.30;;;0.30;;
12275;SDS011;6200;48.144;11.424;2023-03-01T16:17:47;0.30;;;0.30;;
12275;SDS011;6200;48.144;11.424;2023-03-01T16:20:13;0.30;;;0.30;;
12275;SDS011;6200;48.144;11.424;2023-03-01T16:22:42;0.40;;;0.40;;
12275;SDS011;6200;48.144;11.424;2023-03-01T16:25:12;0.37;;;0.37;;
12275;SDS011;6200;48.144;11.424;2023-03-01T16:27:43;0.30;;;0.30;;
12275;SDS011;6200;48.144;11.424;2023-03-01T16:30:10;0.30;;;0.30;;
12275;SDS011;6200;48.144;11.424;2023-03-01T16:32:37;0.23;;;0.23;;
12275;SDS011;6200;48.144;11.424;2023-03-01T16:35:04;0.20;;;0.20;;
12275;SDS011;6200;48.144;11.424;2023-03-01T16:37:31;0.30;;;0.30;;
12275;SDS011;6200;48.144;11.424;2023-03-01T16:39:58;0.30;;;0.30;;
12275;SDS011;6200;48.144;11.424;2023-03-01T16:42:23;0.20;;;0.20;;
12275;SDS011;6200;48.144;11.424;2023-03-01T16:44:51;0.30;;;0.30;;
12275;SDS011;6200;48.144;11.424;2023-03-01T16:47:20;0.20;;;0.20;;
12275;SDS011;6200;48.144;11.424;2023-03-01T16:49:46;0.20;;;0.20;;
12275;SDS011;6200;48.144;11.424;2023-03-01T16:52:11;0.23;;;0.23;;
12275;SDS011;6200;48.144;11.424;2023-03-01T16:54:36;0.20;;;0.20;;
12275;SDS011;6200;48.144;11.424;2023-03-01T16:57:02;0.23;;;0.23;;
12275;SDS011;6200;48.144;11.424;2023-03-01T16:59:28;0.30;;;0.30;;
12275;SDS011;6200;48.144;11.424;2023-03-01T17:01:53;0.30;;;0.30;;
12275;SDS011;6200;48.144;11.424;2023-03-01T17:04:19;0.30;;;0.30;;
12275;SDS011;6200;48.144;11.424;2023-03-01T17:06:44;0.30;;;0.30;;
12275;SDS011;6200;48.144;11.424;2023-03-01T17:09:11;0.20;;;0.20;;